Skip Navigation Links Skip Navigation Links

Current Weather

Chandler Muni, Chandler, Ariz.

For information only: do not use for flight planning or navigation.
Latest weather
Observation time Thursday, January 27, 2022 8:47 PM MST
Local time Thursday, January 27, 2022 10:34 PM MST
Flight conditions Visual Meteorological Conditions
Winds
Wind speed calm
Visibility 10 mi.
Sky condition
Ceiling unlimited
Sky clear
Temperature 57°F
Dewpoint 27°F
Altimeter 30.22 in.Hg
Derived measurements
Relative humidity 31%
Density altitude 864 ft.
Remarks
Last observation of the day.
METAR KCHD 280347Z 00000KT 10SM CLR 14/M03 A3022 RMK LAST

Settings

Location code

InnerDrive.Weather 4.0.6770.0 Release CLR 4.0.30319.42000
Copyright ©2018 Inner Drive Technology. All rights reserved. Portions Copyright ©1986-2018 David Braverman.

Find weather

Site navigation


Skip Navigation Links

Place info

Page info

PayPal - The safer, easier way to pay online!

Return home.

Copyright ©2022 Inner Drive Technology. Purveyors of fine, hand-crafted computer software. Page printed 2022-01-28T05:34:23 UTC.